Hlavní strana
METAR-TAF:

METAR-TAF

Letiště :

Sundsvall-Härnösand, Švédsko

zeměpisná šířka: 62-32N, zeměpisná délka: 017-27E, výška: 4 m

Aktuální stav počasí

Zpráva byla vytvořena před 28 minutami, v 09:20 UTC
Bezvětří
Teplota -3°C
Vlhkost vzduchu 100%
Tlak 1002 hPa
Viditelnost 10 km a více

METAR: ESNN 160920Z AUTO 00000KT 9999 SCT110/// M03/M03 Q1002

Čas: 10:48 (09:48 UTC)

Předpověď počasí

Zpráva byla vytvořena před 12 hodinami a 29 minutami, v 21:19 UTC
Předpověď platná od 15 v 21 UTC do 15 v 23 UTC
vítr z různých směrů 2 kt
Viditelnost 10 km a více
Žádná oblačnost pod 1500 m, nevyskytují se cumulonimby.
Dočasný
od 15 v 21 UTC do 15 v 23 UTC
Viditelnost: 1200 m
chuchvalce mlhy

TAF: ESNN 152119Z 1521/1523 VRB02KT CAVOK TEMPO 1521/1523 1200 BCFG

Stav a předpovědi počasí z více než 4 000 letišť (zprávy METAR a TAF).

Červené a žluté tečky na mapě představují dostupné meteorologické stanice.

Když kurzor umístíte na tečku, zobrazí se název stanice.

Pak kliknutím zobrazíte stav a předpověď počasí.

Chcete-li změnit mapu, kliknutím na zelené tlačítko se znaménkem +mapu přiblížíte, kliknutím na zelené tlačítko se znaménkem – mapu oddálíte a kliknutím na zelené šipky přejdete na sousední mapy.


METAR-TAF: